sensor_id;sensor_type;location;lat;lon;timestamp;P1;durP1;ratioP1;P2;durP2;ratioP2
31382;SDS011;18014;49.228;11.102;2023-12-20T00:01:36;10.88;;;7.43;;
31382;SDS011;18014;49.228;11.102;2023-12-20T00:03:37;10.85;;;6.95;;
31382;SDS011;18014;49.228;11.102;2023-12-20T00:05:38;11.35;;;7.40;;
31382;SDS011;18014;49.228;11.102;2023-12-20T00:07:41;9.95;;;7.03;;
31382;SDS011;18014;49.228;11.102;2023-12-20T00:09:42;11.07;;;6.97;;
31382;SDS011;18014;49.228;11.102;2023-12-20T00:11:43;13.95;;;7.22;;
31382;SDS011;18014;49.228;11.102;2023-12-20T00:13:43;9.65;;;6.95;;
31382;SDS011;18014;49.228;11.102;2023-12-20T00:15:44;10.35;;;7.35;;
31382;SDS011;18014;49.228;11.102;2023-12-20T00:17:45;10.65;;;6.60;;
31382;SDS011;18014;49.228;11.102;2023-12-20T00:19:46;9.35;;;6.65;;
31382;SDS011;18014;49.228;11.102;2023-12-20T00:21:47;10.95;;;7.18;;
31382;SDS011;18014;49.228;11.102;2023-12-20T00:23:48;11.13;;;7.18;;
31382;SDS011;18014;49.228;11.102;2023-12-20T00:25:49;11.75;;;6.68;;
31382;SDS011;18014;49.228;11.102;2023-12-20T00:27:50;9.95;;;6.78;;
31382;SDS011;18014;49.228;11.102;2023-12-20T00:29:51;10.27;;;6.88;;
31382;SDS011;18014;49.228;11.102;2023-12-20T00:31:52;11.02;;;7.18;;
31382;SDS011;18014;49.228;11.102;2023-12-20T00:33:53;11.52;;;7.00;;
31382;SDS011;18014;49.228;11.102;2023-12-20T00:35:55;9.02;;;6.85;;
31382;SDS011;18014;49.228;11.102;2023-12-20T00:37:58;9.93;;;7.22;;
31382;SDS011;18014;49.228;11.102;2023-12-20T00:39:59;8.82;;;6.95;;
31382;SDS011;18014;49.228;11.102;2023-12-20T00:42:00;10.30;;;7.25;;
31382;SDS011;18014;49.228;11.102;2023-12-20T00:44:01;11.52;;;7.40;;
31382;SDS011;18014;49.228;11.102;2023-12-20T00:46:02;10.30;;;7.63;;
31382;SDS011;18014;49.228;11.102;2023-12-20T00:48:03;10.70;;;7.65;;
31382;SDS011;18014;49.228;11.102;2023-12-20T00:50:05;14.75;;;8.05;;
31382;SDS011;18014;49.228;11.102;2023-12-20T00:52:06;15.80;;;7.65;;
31382;SDS011;18014;49.228;11.102;2023-12-20T00:54:07;12.38;;;8.45;;
31382;SDS011;18014;49.228;11.102;2023-12-20T00:56:09;11.23;;;7.82;;
31382;SDS011;18014;49.228;11.102;2023-12-20T00:58:10;11.00;;;7.68;;
31382;SDS011;18014;49.228;11.102;2023-12-20T01:00:11;14.50;;;8.23;;
31382;SDS011;18014;49.228;11.102;2023-12-20T01:02:13;13.95;;;7.65;;
31382;SDS011;18014;49.228;11.102;2023-12-20T01:04:14;10.35;;;7.85;;
31382;SDS011;18014;49.228;11.102;2023-12-20T01:06:15;15.95;;;8.48;;
31382;SDS011;18014;49.228;11.102;2023-12-20T01:08:16;11.35;;;7.95;;
31382;SDS011;18014;49.228;11.102;2023-12-20T01:10:17;10.00;;;7.40;;
31382;SDS011;18014;49.228;11.102;2023-12-20T01:12:17;10.63;;;7.47;;
31382;SDS011;18014;49.228;11.102;2023-12-20T01:14:20;11.27;;;7.45;;
31382;SDS011;18014;49.228;11.102;2023-12-20T01:16:21;9.98;;;7.20;;
31382;SDS011;18014;49.228;11.102;2023-12-20T01:18:22;11.05;;;7.50;;
31382;SDS011;18014;49.228;11.102;2023-12-20T01:20:23;10.13;;;7.28;;
31382;SDS011;18014;49.228;11.102;2023-12-20T01:22:24;12.30;;;8.13;;
31382;SDS011;18014;49.228;11.102;2023-12-20T01:24:25;11.30;;;7.55;;
31382;SDS011;18014;49.228;11.102;2023-12-20T01:26:25;11.77;;;7.40;;
31382;SDS011;18014;49.228;11.102;2023-12-20T01:28:26;13.35;;;6.75;;
31382;SDS011;18014;49.228;11.102;2023-12-20T01:30:27;8.57;;;7.13;;
31382;SDS011;18014;49.228;11.102;2023-12-20T01:32:28;11.20;;;7.65;;
31382;SDS011;18014;49.228;11.102;2023-12-20T01:34:29;10.90;;;7.28;;
31382;SDS011;18014;49.228;11.102;2023-12-20T01:36:30;10.27;;;7.50;;
31382;SDS011;18014;49.228;11.102;2023-12-20T01:38:31;11.38;;;8.48;;
31382;SDS011;18014;49.228;11.102;2023-12-20T01:40:32;11.63;;;7.50;;
31382;SDS011;18014;49.228;11.102;2023-12-20T01:42:33;10.43;;;7.65;;
31382;SDS011;18014;49.228;11.102;2023-12-20T01:44:34;11.57;;;7.75;;
31382;SDS011;18014;49.228;11.102;2023-12-20T01:46:35;10.73;;;7.50;;
31382;SDS011;18014;49.228;11.102;2023-12-20T01:48:36;10.65;;;7.10;;
31382;SDS011;18014;49.228;11.102;2023-12-20T01:50:37;12.15;;;7.40;;
31382;SDS011;18014;49.228;11.102;2023-12-20T01:52:39;10.80;;;7.65;;
31382;SDS011;18014;49.228;11.102;2023-12-20T01:54:41;11.63;;;7.00;;
31382;SDS011;18014;49.228;11.102;2023-12-20T01:56:43;11.88;;;7.10;;
31382;SDS011;18014;49.228;11.102;2023-12-20T01:58:44;8.38;;;6.78;;
31382;SDS011;18014;49.228;11.102;2023-12-20T02:00:46;9.73;;;7.18;;
31382;SDS011;18014;49.228;11.102;2023-12-20T02:02:47;12.35;;;6.95;;
31382;SDS011;18014;49.228;11.102;2023-12-20T02:04:49;9.87;;;6.80;;
31382;SDS011;18014;49.228;11.102;2023-12-20T02:06:52;8.68;;;6.78;;
31382;SDS011;18014;49.228;11.102;2023-12-20T02:08:53;10.50;;;6.72;;
31382;SDS011;18014;49.228;11.102;2023-12-20T02:10:54;9.80;;;7.05;;
31382;SDS011;18014;49.228;11.102;2023-12-20T02:12:56;10.07;;;7.10;;
31382;SDS011;18014;49.228;11.102;2023-12-20T02:14:57;9.75;;;6.70;;
31382;SDS011;18014;49.228;11.102;2023-12-20T02:16:58;10.70;;;6.93;;
31382;SDS011;18014;49.228;11.102;2023-12-20T02:18:59;8.48;;;6.38;;
31382;SDS011;18014;49.228;11.102;2023-12-20T02:21:00;12.52;;;6.97;;
31382;SDS011;18014;49.228;11.102;2023-12-20T02:23:01;10.82;;;7.25;;
31382;SDS011;18014;49.228;11.102;2023-12-20T02:25:02;10.13;;;7.65;;
31382;SDS011;18014;49.228;11.102;2023-12-20T02:27:04;9.07;;;6.90;;
31382;SDS011;18014;49.228;11.102;2023-12-20T02:29:07;10.75;;;7.65;;
31382;SDS011;18014;49.228;11.102;2023-12-20T02:31:08;13.38;;;7.90;;
31382;SDS011;18014;49.228;11.102;2023-12-20T02:33:10;10.23;;;6.43;;
31382;SDS011;18014;49.228;11.102;2023-12-20T02:35:12;11.27;;;7.63;;
31382;SDS011;18014;49.228;11.102;2023-12-20T02:37:13;14.02;;;8.57;;
31382;SDS011;18014;49.228;11.102;2023-12-20T02:39:14;11.55;;;8.40;;
31382;SDS011;18014;49.228;11.102;2023-12-20T02:41:15;9.82;;;7.93;;
31382;SDS011;18014;49.228;11.102;2023-12-20T02:43:18;11.65;;;8.05;;
31382;SDS011;18014;49.228;11.102;2023-12-20T02:45:18;11.32;;;7.35;;
31382;SDS011;18014;49.228;11.102;2023-12-20T02:47:19;14.93;;;9.18;;
31382;SDS011;18014;49.228;11.102;2023-12-20T02:49:20;12.13;;;8.38;;
31382;SDS011;18014;49.228;11.102;2023-12-20T02:51:21;13.18;;;8.20;;
31382;SDS011;18014;49.228;11.102;2023-12-20T02:53:22;10.65;;;7.97;;
31382;SDS011;18014;49.228;11.102;2023-12-20T02:55:23;8.68;;;7.35;;
31382;SDS011;18014;49.228;11.102;2023-12-20T02:57:24;11.10;;;7.30;;
31382;SDS011;18014;49.228;11.102;2023-12-20T02:59:25;11.05;;;7.70;;
31382;SDS011;18014;49.228;11.102;2023-12-20T03:01:26;9.93;;;7.68;;
31382;SDS011;18014;49.228;11.102;2023-12-20T03:03:28;8.88;;;5.85;;
31382;SDS011;18014;49.228;11.102;2023-12-20T03:05:29;6.85;;;4.53;;
31382;SDS011;18014;49.228;11.102;2023-12-20T03:07:30;5.15;;;4.20;;
31382;SDS011;18014;49.228;11.102;2023-12-20T03:09:31;5.18;;;3.85;;
31382;SDS011;18014;49.228;11.102;2023-12-20T03:11:32;4.40;;;4.00;;
31382;SDS011;18014;49.228;11.102;2023-12-20T03:13:33;6.18;;;4.60;;
31382;SDS011;18014;49.228;11.102;2023-12-20T03:15:34;4.10;;;3.22;;
31382;SDS011;18014;49.228;11.102;2023-12-20T03:17:35;3.55;;;3.25;;
31382;SDS011;18014;49.228;11.102;2023-12-20T03:19:36;4.93;;;3.33;;
31382;SDS011;18014;49.228;11.102;2023-12-20T03:21:37;7.75;;;3.83;;
31382;SDS011;18014;49.228;11.102;2023-12-20T03:23:38;5.93;;;3.72;;
31382;SDS011;18014;49.228;11.102;2023-12-20T03:25:39;4.75;;;3.40;;
31382;SDS011;18014;49.228;11.102;2023-12-20T03:27:40;5.03;;;3.05;;
31382;SDS011;18014;49.228;11.102;2023-12-20T03:29:41;4.43;;;3.22;;
31382;SDS011;18014;49.228;11.102;2023-12-20T03:31:42;3.80;;;3.28;;
31382;SDS011;18014;49.228;11.102;2023-12-20T03:33:43;5.30;;;3.35;;
31382;SDS011;18014;49.228;11.102;2023-12-20T03:35:44;2.90;;;2.60;;
31382;SDS011;18014;49.228;11.102;2023-12-20T03:37:45;3.53;;;2.88;;
31382;SDS011;18014;49.228;11.102;2023-12-20T03:39:46;4.55;;;3.10;;
31382;SDS011;18014;49.228;11.102;2023-12-20T03:41:46;4.35;;;2.80;;
31382;SDS011;18014;49.228;11.102;2023-12-20T03:43:47;3.47;;;2.78;;
31382;SDS011;18014;49.228;11.102;2023-12-20T03:45:48;3.35;;;2.83;;
31382;SDS011;18014;49.228;11.102;2023-12-20T03:47:49;4.78;;;3.15;;
31382;SDS011;18014;49.228;11.102;2023-12-20T03:49:54;3.70;;;2.97;;
31382;SDS011;18014;49.228;11.102;2023-12-20T03:51:55;5.05;;;3.58;;
31382;SDS011;18014;49.228;11.102;2023-12-20T03:53:56;3.53;;;2.85;;
31382;SDS011;18014;49.228;11.102;2023-12-20T03:55:57;4.90;;;3.25;;
31382;SDS011;18014;49.228;11.102;2023-12-20T03:57:59;4.32;;;3.47;;
31382;SDS011;18014;49.228;11.102;2023-12-20T03:59:59;4.15;;;3.17;;
31382;SDS011;18014;49.228;11.102;2023-12-20T04:02:00;3.55;;;2.97;;
31382;SDS011;18014;49.228;11.102;2023-12-20T04:04:02;3.65;;;2.72;;
31382;SDS011;18014;49.228;11.102;2023-12-20T04:06:03;4.82;;;3.53;;
31382;SDS011;18014;49.228;11.102;2023-12-20T04:08:04;3.22;;;2.80;;
31382;SDS011;18014;49.228;11.102;2023-12-20T04:10:05;3.45;;;3.15;;
31382;SDS011;18014;49.228;11.102;2023-12-20T04:12:07;6.03;;;2.88;;
31382;SDS011;18014;49.228;11.102;2023-12-20T04:14:08;2.85;;;2.50;;
31382;SDS011;18014;49.228;11.102;2023-12-20T04:16:09;5.35;;;3.20;;
31382;SDS011;18014;49.228;11.102;2023-12-20T04:18:09;3.20;;;2.35;;
31382;SDS011;18014;49.228;11.102;2023-12-20T04:20:10;2.78;;;2.33;;
31382;SDS011;18014;49.228;11.102;2023-12-20T04:22:11;2.47;;;2.22;;
31382;SDS011;18014;49.228;11.102;2023-12-20T04:24:12;2.28;;;2.08;;
31382;SDS011;18014;49.228;11.102;2023-12-20T04:26:13;2.88;;;2.30;;
31382;SDS011;18014;49.228;11.102;2023-12-20T04:28:14;1.75;;;1.60;;
31382;SDS011;18014;49.228;11.102;2023-12-20T04:30:15;1.92;;;1.70;;
31382;SDS011;18014;49.228;11.102;2023-12-20T04:32:16;1.90;;;1.50;;
31382;SDS011;18014;49.228;11.102;2023-12-20T04:34:17;1.70;;;1.60;;
31382;SDS011;18014;49.228;11.102;2023-12-20T04:36:18;2.15;;;1.52;;
31382;SDS011;18014;49.228;11.102;2023-12-20T04:38:19;1.98;;;1.60;;
31382;SDS011;18014;49.228;11.102;2023-12-20T04:40:20;1.83;;;1.65;;
31382;SDS011;18014;49.228;11.102;2023-12-20T04:42:21;1.45;;;1.35;;
31382;SDS011;18014;49.228;11.102;2023-12-20T04:44:22;2.00;;;1.80;;
31382;SDS011;18014;49.228;11.102;2023-12-20T04:46:23;1.77;;;1.58;;
31382;SDS011;18014;49.228;11.102;2023-12-20T04:48:24;1.50;;;1.40;;
31382;SDS011;18014;49.228;11.102;2023-12-20T04:50:25;2.75;;;1.60;;
31382;SDS011;18014;49.228;11.102;2023-12-20T04:52:26;1.65;;;1.50;;
31382;SDS011;18014;49.228;11.102;2023-12-20T04:54:27;1.98;;;1.50;;
31382;SDS011;18014;49.228;11.102;2023-12-20T04:56:28;1.50;;;1.35;;
31382;SDS011;18014;49.228;11.102;2023-12-20T04:58:29;2.20;;;1.50;;
31382;SDS011;18014;49.228;11.102;2023-12-20T05:00:30;1.88;;;1.33;;
31382;SDS011;18014;49.228;11.102;2023-12-20T05:02:31;1.85;;;1.33;;
31382;SDS011;18014;49.228;11.102;2023-12-20T05:04:32;2.15;;;1.33;;
31382;SDS011;18014;49.228;11.102;2023-12-20T05:06:33;1.55;;;1.25;;
31382;SDS011;18014;49.228;11.102;2023-12-20T05:08:34;2.30;;;1.42;;
31382;SDS011;18014;49.228;11.102;2023-12-20T05:10:35;1.52;;;1.20;;
31382;SDS011;18014;49.228;11.102;2023-12-20T05:12:36;1.73;;;1.40;;
31382;SDS011;18014;49.228;11.102;2023-12-20T05:14:37;2.13;;;1.15;;
31382;SDS011;18014;49.228;11.102;2023-12-20T05:16:38;1.60;;;1.20;;
31382;SDS011;18014;49.228;11.102;2023-12-20T05:18:39;0.88;;;0.80;;
31382;SDS011;18014;49.228;11.102;2023-12-20T05:20:40;1.13;;;1.00;;
31382;SDS011;18014;49.228;11.102;2023-12-20T05:22:41;1.13;;;1.02;;
31382;SDS011;18014;49.228;11.102;2023-12-20T05:24:42;1.00;;;0.90;;
31382;SDS011;18014;49.228;11.102;2023-12-20T05:26:43;1.73;;;1.10;;
31382;SDS011;18014;49.228;11.102;2023-12-20T05:28:44;0.70;;;0.70;;
31382;SDS011;18014;49.228;11.102;2023-12-20T05:30:45;1.20;;;0.82;;
31382;SDS011;18014;49.228;11.102;2023-12-20T05:32:46;2.10;;;1.00;;
31382;SDS011;18014;49.228;11.102;2023-12-20T05:34:47;1.35;;;0.80;;
31382;SDS011;18014;49.228;11.102;2023-12-20T05:36:47;2.28;;;1.33;;
31382;SDS011;18014;49.228;11.102;2023-12-20T05:38:48;1.75;;;1.13;;
31382;SDS011;18014;49.228;11.102;2023-12-20T05:40:49;1.55;;;1.25;;
31382;SDS011;18014;49.228;11.102;2023-12-20T05:42:50;2.22;;;1.50;;
31382;SDS011;18014;49.228;11.102;2023-12-20T05:44:51;2.95;;;1.38;;
31382;SDS011;18014;49.228;11.102;2023-12-20T05:46:52;2.00;;;1.45;;
31382;SDS011;18014;49.228;11.102;2023-12-20T05:48:53;1.40;;;1.30;;
31382;SDS011;18014;49.228;11.102;2023-12-20T05:50:54;1.20;;;1.10;;
31382;SDS011;18014;49.228;11.102;2023-12-20T05:52:55;1.25;;;1.15;;
31382;SDS011;18014;49.228;11.102;2023-12-20T05:54:56;1.67;;;1.17;;
31382;SDS011;18014;49.228;11.102;2023-12-20T05:57:00;1.70;;;1.20;;
31382;SDS011;18014;49.228;11.102;2023-12-20T05:59:02;3.80;;;1.50;;
31382;SDS011;18014;49.228;11.102;2023-12-20T06:01:03;1.33;;;1.17;;
31382;SDS011;18014;49.228;11.102;2023-12-20T06:03:05;2.30;;;1.50;;
31382;SDS011;18014;49.228;11.102;2023-12-20T06:05:06;2.92;;;1.55;;
31382;SDS011;18014;49.228;11.102;2023-12-20T06:07:07;2.47;;;1.40;;
31382;SDS011;18014;49.228;11.102;2023-12-20T06:09:08;1.23;;;1.05;;
31382;SDS011;18014;49.228;11.102;2023-12-20T06:11:09;1.75;;;1.50;;
31382;SDS011;18014;49.228;11.102;2023-12-20T06:13:10;1.40;;;1.30;;
31382;SDS011;18014;49.228;11.102;2023-12-20T06:15:13;2.00;;;1.27;;
31382;SDS011;18014;49.228;11.102;2023-12-20T06:17:14;2.55;;;1.27;;
31382;SDS011;18014;49.228;11.102;2023-12-20T06:19:15;1.77;;;1.35;;
31382;SDS011;18014;49.228;11.102;2023-12-20T06:21:16;2.22;;;1.33;;
31382;SDS011;18014;49.228;11.102;2023-12-20T06:23:17;2.08;;;1.88;;
31382;SDS011;18014;49.228;11.102;2023-12-20T06:25:18;1.92;;;1.58;;
31382;SDS011;18014;49.228;11.102;2023-12-20T06:27:19;1.77;;;1.45;;
31382;SDS011;18014;49.228;11.102;2023-12-20T06:29:19;1.63;;;1.50;;
31382;SDS011;18014;49.228;11.102;2023-12-20T06:31:20;2.47;;;1.63;;
31382;SDS011;18014;49.228;11.102;2023-12-20T06:33:21;1.50;;;1.40;;
31382;SDS011;18014;49.228;11.102;2023-12-20T06:35:23;2.88;;;1.80;;
31382;SDS011;18014;49.228;11.102;2023-12-20T06:37:24;2.40;;;1.63;;
31382;SDS011;18014;49.228;11.102;2023-12-20T06:39:25;2.22;;;1.70;;
31382;SDS011;18014;49.228;11.102;2023-12-20T06:41:26;3.50;;;1.92;;
31382;SDS011;18014;49.228;11.102;2023-12-20T06:43:27;2.25;;;2.05;;
31382;SDS011;18014;49.228;11.102;2023-12-20T06:45:29;2.45;;;1.88;;
31382;SDS011;18014;49.228;11.102;2023-12-20T06:47:29;2.47;;;2.25;;
31382;SDS011;18014;49.228;11.102;2023-12-20T06:49:30;4.03;;;2.15;;
31382;SDS011;18014;49.228;11.102;2023-12-20T06:51:31;2.42;;;1.85;;
31382;SDS011;18014;49.228;11.102;2023-12-20T06:53:33;1.80;;;1.70;;
31382;SDS011;18014;49.228;11.102;2023-12-20T06:55:37;3.80;;;2.60;;
31382;SDS011;18014;49.228;11.102;2023-12-20T06:57:38;3.35;;;2.80;;
31382;SDS011;18014;49.228;11.102;2023-12-20T06:59:40;2.65;;;2.45;;
31382;SDS011;18014;49.228;11.102;2023-12-20T07:01:41;3.28;;;2.60;;
31382;SDS011;18014;49.228;11.102;2023-12-20T07:03:42;2.88;;;2.53;;
31382;SDS011;18014;49.228;11.102;2023-12-20T07:05:43;2.95;;;2.55;;
31382;SDS011;18014;49.228;11.102;2023-12-20T07:07:44;3.40;;;2.67;;
31382;SDS011;18014;49.228;11.102;2023-12-20T07:09:46;2.70;;;2.45;;
31382;SDS011;18014;49.228;11.102;2023-12-20T07:11:47;2.95;;;2.22;;
31382;SDS011;18014;49.228;11.102;2023-12-20T07:13:48;3.17;;;2.42;;
31382;SDS011;18014;49.228;11.102;2023-12-20T07:15:49;3.08;;;2.60;;
31382;SDS011;18014;49.228;11.102;2023-12-20T07:17:50;2.80;;;2.40;;
31382;SDS011;18014;49.228;11.102;2023-12-20T07:19:51;2.72;;;2.53;;
31382;SDS011;18014;49.228;11.102;2023-12-20T07:21:52;3.45;;;2.97;;
31382;SDS011;18014;49.228;11.102;2023-12-20T07:23:53;3.28;;;2.58;;
31382;SDS011;18014;49.228;11.102;2023-12-20T07:25:54;3.60;;;2.95;;
31382;SDS011;18014;49.228;11.102;2023-12-20T07:27:55;4.30;;;3.20;;
31382;SDS011;18014;49.228;11.102;2023-12-20T07:29:56;4.78;;;3.45;;
31382;SDS011;18014;49.228;11.102;2023-12-20T07:31:57;4.07;;;3.60;;
31382;SDS011;18014;49.228;11.102;2023-12-20T07:33:58;4.38;;;3.50;;
31382;SDS011;18014;49.228;11.102;2023-12-20T07:35:59;4.65;;;3.72;;
31382;SDS011;18014;49.228;11.102;2023-12-20T07:38:01;5.07;;;3.63;;
31382;SDS011;18014;49.228;11.102;2023-12-20T07:40:02;3.60;;;2.90;;
31382;SDS011;18014;49.228;11.102;2023-12-20T07:42:03;3.45;;;3.15;;
31382;SDS011;18014;49.228;11.102;2023-12-20T07:44:04;4.53;;;3.70;;
31382;SDS011;18014;49.228;11.102;2023-12-20T07:46:06;3.97;;;3.42;;
31382;SDS011;18014;49.228;11.102;2023-12-20T07:48:08;3.95;;;3.53;;
31382;SDS011;18014;49.228;11.102;2023-12-20T07:50:09;3.65;;;3.33;;
31382;SDS011;18014;49.228;11.102;2023-12-20T07:52:10;3.35;;;3.05;;
31382;SDS011;18014;49.228;11.102;2023-12-20T07:54:11;3.45;;;3.15;;
31382;SDS011;18014;49.228;11.102;2023-12-20T07:56:19;3.72;;;3.25;;
31382;SDS011;18014;49.228;11.102;2023-12-20T07:58:20;3.95;;;3.63;;
31382;SDS011;18014;49.228;11.102;2023-12-20T08:00:22;4.50;;;4.05;;
31382;SDS011;18014;49.228;11.102;2023-12-20T08:02:23;5.25;;;4.53;;
31382;SDS011;18014;49.228;11.102;2023-12-20T08:04:24;5.18;;;4.35;;
31382;SDS011;18014;49.228;11.102;2023-12-20T08:06:25;5.72;;;4.68;;
31382;SDS011;18014;49.228;11.102;2023-12-20T08:08:25;5.57;;;5.00;;
31382;SDS011;18014;49.228;11.102;2023-12-20T08:10:26;6.20;;;4.55;;
31382;SDS011;18014;49.228;11.102;2023-12-20T08:12:29;7.00;;;4.78;;
31382;SDS011;18014;49.228;11.102;2023-12-20T08:14:30;5.03;;;4.53;;
31382;SDS011;18014;49.228;11.102;2023-12-20T08:16:31;5.80;;;5.05;;
31382;SDS011;18014;49.228;11.102;2023-12-20T08:18:32;5.53;;;5.00;;
31382;SDS011;18014;49.228;11.102;2023-12-20T08:20:33;5.80;;;5.22;;
31382;SDS011;18014;49.228;11.102;2023-12-20T08:22:34;6.65;;;5.18;;
31382;SDS011;18014;49.228;11.102;2023-12-20T08:24:35;6.20;;;5.57;;
31382;SDS011;18014;49.228;11.102;2023-12-20T08:26:36;5.88;;;5.32;;
31382;SDS011;18014;49.228;11.102;2023-12-20T08:28:37;6.63;;;5.88;;
31382;SDS011;18014;49.228;11.102;2023-12-20T08:30:38;7.57;;;5.93;;
31382;SDS011;18014;49.228;11.102;2023-12-20T08:32:39;6.65;;;5.68;;
31382;SDS011;18014;49.228;11.102;2023-12-20T08:34:40;7.32;;;6.10;;
31382;SDS011;18014;49.228;11.102;2023-12-20T08:36:41;7.07;;;6.28;;
31382;SDS011;18014;49.228;11.102;2023-12-20T08:38:42;7.40;;;5.63;;
31382;SDS011;18014;49.228;11.102;2023-12-20T08:40:43;7.05;;;6.05;;
31382;SDS011;18014;49.228;11.102;2023-12-20T08:42:44;7.72;;;6.30;;
31382;SDS011;18014;49.228;11.102;2023-12-20T08:44:45;6.53;;;5.82;;
31382;SDS011;18014;49.228;11.102;2023-12-20T08:46:46;7.20;;;6.50;;
31382;SDS011;18014;49.228;11.102;2023-12-20T08:48:47;6.90;;;6.20;;
31382;SDS011;18014;49.228;11.102;2023-12-20T08:50:48;4.70;;;4.30;;
31382;SDS011;18014;49.228;11.102;2023-12-20T08:52:50;7.30;;;4.60;;
31382;SDS011;18014;49.228;11.102;2023-12-20T08:54:51;5.68;;;4.60;;
31382;SDS011;18014;49.228;11.102;2023-12-20T08:56:53;4.78;;;4.30;;
31382;SDS011;18014;49.228;11.102;2023-12-20T08:58:54;4.65;;;4.25;;
31382;SDS011;18014;49.228;11.102;2023-12-20T09:00:55;5.63;;;4.63;;
31382;SDS011;18014;49.228;11.102;2023-12-20T09:02:57;9.95;;;7.65;;
31382;SDS011;18014;49.228;11.102;2023-12-20T09:04:58;7.60;;;4.93;;
31382;SDS011;18014;49.228;11.102;2023-12-20T09:06:59;5.43;;;4.53;;
31382;SDS011;18014;49.228;11.102;2023-12-20T09:09:01;5.93;;;4.90;;
31382;SDS011;18014;49.228;11.102;2023-12-20T09:11:02;5.05;;;4.45;;
31382;SDS011;18014;49.228;11.102;2023-12-20T09:13:03;5.30;;;4.65;;
31382;SDS011;18014;49.228;11.102;2023-12-20T09:15:04;6.20;;;4.60;;
31382;SDS011;18014;49.228;11.102;2023-12-20T09:17:05;5.68;;;4.43;;
31382;SDS011;18014;49.228;11.102;2023-12-20T09:19:08;5.13;;;4.63;;
31382;SDS011;18014;49.228;11.102;2023-12-20T09:21:09;5.75;;;4.53;;
31382;SDS011;18014;49.228;11.102;2023-12-20T09:23:10;5.85;;;4.10;;
31382;SDS011;18014;49.228;11.102;2023-12-20T09:25:11;4.35;;;3.95;;
31382;SDS011;18014;49.228;11.102;2023-12-20T09:27:13;4.28;;;3.88;;
31382;SDS011;18014;49.228;11.102;2023-12-20T09:29:15;5.03;;;4.00;;
31382;SDS011;18014;49.228;11.102;2023-12-20T09:31:17;5.35;;;4.85;;
31382;SDS011;18014;49.228;11.102;2023-12-20T09:33:18;6.20;;;4.97;;
31382;SDS011;18014;49.228;11.102;2023-12-20T09:35:19;4.75;;;4.22;;
31382;SDS011;18014;49.228;11.102;2023-12-20T09:37:20;4.22;;;3.70;;
31382;SDS011;18014;49.228;11.102;2023-12-20T09:39:20;4.65;;;3.55;;
31382;SDS011;18014;49.228;11.102;2023-12-20T09:41:22;4.68;;;3.85;;
31382;SDS011;18014;49.228;11.102;2023-12-20T09:43:25;6.65;;;4.03;;
31382;SDS011;18014;49.228;11.102;2023-12-20T09:45:26;5.47;;;3.97;;
31382;SDS011;18014;49.228;11.102;2023-12-20T09:47:27;7.43;;;3.80;;
31382;SDS011;18014;49.228;11.102;2023-12-20T09:49:28;3.58;;;3.28;;
31382;SDS011;18014;49.228;11.102;2023-12-20T09:51:30;8.77;;;3.90;;
31382;SDS011;18014;49.228;11.102;2023-12-20T09:53:31;4.65;;;4.20;;
31382;SDS011;18014;49.228;11.102;2023-12-20T09:55:35;4.85;;;4.20;;
31382;SDS011;18014;49.228;11.102;2023-12-20T09:57:37;4.88;;;4.25;;
31382;SDS011;18014;49.228;11.102;2023-12-20T09:59:39;5.50;;;3.85;;
31382;SDS011;18014;49.228;11.102;2023-12-20T10:01:41;5.40;;;4.10;;
31382;SDS011;18014;49.228;11.102;2023-12-20T10:03:43;5.65;;;3.80;;
31382;SDS011;18014;49.228;11.102;2023-12-20T10:05:46;4.85;;;4.00;;
31382;SDS011;18014;49.228;11.102;2023-12-20T10:07:49;5.68;;;3.55;;
31382;SDS011;18014;49.228;11.102;2023-12-20T10:09:51;4.05;;;3.58;;
31382;SDS011;18014;49.228;11.102;2023-12-20T10:11:54;5.97;;;3.70;;
31382;SDS011;18014;49.228;11.102;2023-12-20T10:13:59;4.47;;;3.92;;
31382;SDS011;18014;49.228;11.102;2023-12-20T10:16:01;4.15;;;3.58;;
31382;SDS011;18014;49.228;11.102;2023-12-20T10:18:02;5.63;;;3.00;;
31382;SDS011;18014;49.228;11.102;2023-12-20T10:20:04;6.27;;;3.07;;
31382;SDS011;18014;49.228;11.102;2023-12-20T10:22:09;4.47;;;3.25;;
31382;SDS011;18014;49.228;11.102;2023-12-20T10:24:11;4.55;;;2.78;;
31382;SDS011;18014;49.228;11.102;2023-12-20T10:26:21;2.45;;;2.25;;
31382;SDS011;18014;49.228;11.102;2023-12-20T10:28:22;4.35;;;2.70;;
31382;SDS011;18014;49.228;11.102;2023-12-20T10:30:27;4.45;;;2.50;;
31382;SDS011;18014;49.228;11.102;2023-12-20T10:32:28;4.45;;;2.67;;
31382;SDS011;18014;49.228;11.102;2023-12-20T10:34:29;4.30;;;2.58;;
31382;SDS011;18014;49.228;11.102;2023-12-20T10:36:33;2.47;;;1.90;;
31382;SDS011;18014;49.228;11.102;2023-12-20T10:38:35;3.33;;;2.03;;
31382;SDS011;18014;49.228;11.102;2023-12-20T10:40:37;3.00;;;1.92;;
31382;SDS011;18014;49.228;11.102;2023-12-20T10:42:38;4.63;;;2.08;;
31382;SDS011;18014;49.228;11.102;2023-12-20T10:44:40;3.35;;;1.95;;
31382;SDS011;18014;49.228;11.102;2023-12-20T10:46:42;4.13;;;1.73;;
31382;SDS011;18014;49.228;11.102;2023-12-20T10:48:49;2.67;;;1.90;;
31382;SDS011;18014;49.228;11.102;2023-12-20T10:50:54;8.00;;;2.50;;
31382;SDS011;18014;49.228;11.102;2023-12-20T10:52:57;2.45;;;1.70;;
31382;SDS011;18014;49.228;11.102;2023-12-20T10:54:58;4.30;;;1.73;;
31382;SDS011;18014;49.228;11.102;2023-12-20T10:56:59;2.63;;;1.63;;
31382;SDS011;18014;49.228;11.102;2023-12-20T10:59:02;3.90;;;1.70;;
31382;SDS011;18014;49.228;11.102;2023-12-20T11:03:06;3.60;;;1.63;;
31382;SDS011;18014;49.228;11.102;2023-12-20T11:05:18;3.60;;;1.85;;
31382;SDS011;18014;49.228;11.102;2023-12-20T11:07:30;13.98;;;7.55;;
31382;SDS011;18014;49.228;11.102;2023-12-20T11:09:38;9.77;;;3.33;;
31382;SDS011;18014;49.228;11.102;2023-12-20T11:14:19;14.23;;;4.93;;
31382;SDS011;18014;49.228;11.102;2023-12-20T11:16:25;5.53;;;2.38;;
31382;SDS011;18014;49.228;11.102;2023-12-20T11:18:29;6.57;;;3.40;;
31382;SDS011;18014;49.228;11.102;2023-12-20T11:20:37;5.15;;;2.20;;
31382;SDS011;18014;49.228;11.102;2023-12-20T11:22:39;4.95;;;2.67;;
31382;SDS011;18014;49.228;11.102;2023-12-20T11:24:52;5.35;;;2.60;;
31382;SDS011;18014;49.228;11.102;2023-12-20T11:26:55;8.82;;;2.45;;
31382;SDS011;18014;49.228;11.102;2023-12-20T11:31:39;5.07;;;2.50;;
31382;SDS011;18014;49.228;11.102;2023-12-20T11:33:41;7.75;;;2.75;;
31382;SDS011;18014;49.228;11.102;2023-12-20T11:35:45;6.25;;;2.17;;
31382;SDS011;18014;49.228;11.102;2023-12-20T11:37:46;5.20;;;2.25;;
31382;SDS011;18014;49.228;11.102;2023-12-20T11:39:55;4.85;;;3.10;;
31382;SDS011;18014;49.228;11.102;2023-12-20T11:42:03;4.72;;;2.15;;
31382;SDS011;18014;49.228;11.102;2023-12-20T11:44:06;6.35;;;2.58;;
31382;SDS011;18014;49.228;11.102;2023-12-20T11:46:08;2.90;;;2.00;;
31382;SDS011;18014;49.228;11.102;2023-12-20T11:48:09;6.68;;;2.90;;
31382;SDS011;18014;49.228;11.102;2023-12-20T11:50:13;6.38;;;2.00;;
31382;SDS011;18014;49.228;11.102;2023-12-20T11:52:14;3.40;;;2.00;;
31382;SDS011;18014;49.228;11.102;2023-12-20T11:54:15;3.83;;;2.35;;
31382;SDS011;18014;49.228;11.102;2023-12-20T11:56:16;7.13;;;2.55;;
31382;SDS011;18014;49.228;11.102;2023-12-20T11:58:18;3.90;;;2.00;;
31382;SDS011;18014;49.228;11.102;2023-12-20T12:00:19;4.15;;;2.05;;
31382;SDS011;18014;49.228;11.102;2023-12-20T12:02:20;5.57;;;2.33;;
31382;SDS011;18014;49.228;11.102;2023-12-20T12:04:21;6.43;;;2.40;;
31382;SDS011;18014;49.228;11.102;2023-12-20T12:06:24;4.45;;;2.40;;